createdAt,value
2022-08-03T00:01:49.168Z,100750.26
2022-08-03T00:04:18.803Z,100745.05
2022-08-03T00:06:49.856Z,100749.44
2022-08-03T00:09:18.954Z,100749.51
2022-08-03T00:11:50.319Z,100753.15
2022-08-03T00:14:23.003Z,100750.67
2022-08-03T00:16:52.596Z,100754.28
2022-08-03T00:19:21.264Z,100750.80
2022-08-03T00:21:49.993Z,100750.83
2022-08-03T00:24:21.093Z,100753.52
2022-08-03T00:26:49.786Z,100751.80
2022-08-03T00:29:18.571Z,100753.61
2022-08-03T00:32:00.522Z,100756.34
2022-08-03T00:34:57.337Z,100760.86
2022-08-03T00:37:21.713Z,100751.29
2022-08-03T00:40:14.182Z,100756.65
2022-08-03T00:42:53.313Z,100755.83
2022-08-03T00:45:25.273Z,100754.08
2022-08-03T00:47:55.590Z,100754.92
2022-08-03T00:50:25.874Z,100748.84
2022-08-03T00:52:57.359Z,100757.77
2022-08-03T00:55:26.972Z,100754.38
2022-08-03T00:57:56.783Z,100753.56
2022-08-03T01:00:27.743Z,100764.12
2022-08-03T01:02:56.435Z,100758.09
2022-08-03T01:05:25.459Z,100752.89
2022-08-03T01:08:05.780Z,100753.86
2022-08-03T01:10:45.687Z,100748.67
2022-08-03T01:14:01.685Z,100754.09
2022-08-03T01:16:19.461Z,100755.97
2022-08-03T01:18:55.598Z,100761.31
2022-08-03T01:21:31.966Z,100761.46
2022-08-03T01:24:27.303Z,100759.81
2022-08-03T01:27:17.986Z,100752.97
2022-08-03T01:30:13.165Z,100756.63
2022-08-03T01:32:59.658Z,100749.69
2022-08-03T01:35:38.460Z,100759.36
2022-08-03T01:38:15.673Z,100758.55
2022-08-03T01:40:46.875Z,100756.75
2022-08-03T01:44:26.925Z,100756.81
2022-08-03T01:46:12.894Z,100759.52
2022-08-03T01:48:46.413Z,100757.86
2022-08-03T01:51:18.598Z,100756.19
2022-08-03T01:53:48.482Z,100752.73
2022-08-03T01:56:17.908Z,100752.73
2022-08-03T01:58:49.873Z,100742.15
2022-08-03T02:01:20.632Z,100744.73
2022-08-03T02:04:00.413Z,100736.05
2022-08-03T02:06:59.958Z,100741.38
2022-08-03T02:09:29.468Z,100736.18
2022-08-03T02:12:01.441Z,100741.38
2022-08-03T02:14:31.318Z,100736.95
2022-08-03T02:17:04.551Z,100739.52
2022-08-03T02:19:35.851Z,100740.40
2022-08-03T02:22:08.384Z,100732.51
2022-08-03T02:24:37.471Z,100730.78
2022-08-03T02:27:14.477Z,100735.16
2022-08-03T02:29:46.489Z,100738.70
2022-08-03T02:32:23.224Z,100736.18
2022-08-03T02:34:54.739Z,100735.30
2022-08-03T02:37:34.145Z,100734.45
2022-08-03T02:40:07.660Z,100737.11
2022-08-03T02:42:38.704Z,100737.17
2022-08-03T02:45:13.516Z,100739.94
2022-08-03T02:47:53.960Z,100735.66
2022-08-03T02:50:25.894Z,100747.08
2022-08-03T02:52:57.134Z,100748.86
2022-08-03T02:55:27.304Z,100748.86
2022-08-03T02:57:57.634Z,100748.86
2022-08-03T03:00:33.882Z,100747.08
2022-08-03T03:03:06.022Z,100750.59
2022-08-03T03:05:53.566Z,100747.96
2022-08-03T03:08:28.687Z,100748.89
2022-08-03T03:11:01.563Z,100748.04
2022-08-03T03:13:31.351Z,100754.20
2022-08-03T03:16:07.130Z,100756.83
2022-08-03T03:18:43.143Z,100758.56
2022-08-03T03:21:20.512Z,100760.34
2022-08-03T03:23:50.652Z,100759.55
2022-08-03T03:26:19.687Z,100757.87
2022-08-03T03:28:48.583Z,100759.66
2022-08-03T03:31:19.232Z,100760.50
2022-08-03T03:33:48.795Z,100753.48
2022-08-03T03:36:18.684Z,100754.28
2022-08-03T03:38:47.379Z,100754.20
2022-08-03T03:41:16.178Z,100762.86
2022-08-03T03:43:45.365Z,100755.73
2022-08-03T03:46:14.421Z,100767.86
2022-08-03T03:48:44.034Z,100758.13
2022-08-03T03:51:13.268Z,100757.11
2022-08-03T03:53:53.677Z,100755.31
2022-08-03T03:56:24.382Z,100759.52
2022-08-03T03:58:54.721Z,100759.39
2022-08-03T04:01:24.143Z,100761.89
2022-08-03T04:03:52.659Z,100764.27
2022-08-03T04:06:39.999Z,100760.55
2022-08-03T04:09:31.037Z,100765.53
2022-08-03T04:12:02.836Z,100764.33
2022-08-03T04:14:41.639Z,100772.75
2022-08-03T04:17:14.200Z,100774.18
2022-08-03T04:19:47.435Z,100777.39
2022-08-03T04:22:26.288Z,100777.08
2022-08-03T04:25:02.479Z,100776.77
2022-08-03T04:27:36.369Z,100785.34
2022-08-03T04:30:05.566Z,100793.00
2022-08-03T04:32:35.713Z,100790.27
2022-08-03T04:35:06.722Z,100797.01
2022-08-03T04:37:42.637Z,100797.59
2022-08-03T04:40:22.802Z,100798.16
2022-08-03T04:42:53.725Z,100799.55
2022-08-03T04:45:24.409Z,100798.37
2022-08-03T04:47:53.720Z,100804.22
2022-08-03T04:50:23.883Z,100803.11
2022-08-03T04:53:11.074Z,100802.94
2022-08-03T04:55:39.597Z,100808.89
2022-08-03T04:58:08.083Z,100809.59
2022-08-03T05:00:38.816Z,100805.97
2022-08-03T05:03:20.327Z,100807.70
2022-08-03T05:05:53.531Z,100809.25
2022-08-03T05:08:31.141Z,100807.28
2022-08-03T05:11:05.748Z,100810.55
2022-08-03T05:13:34.333Z,100814.70
2022-08-03T05:16:08.403Z,100809.28
2022-08-03T05:18:37.333Z,100809.91
2022-08-03T05:21:06.641Z,100816.66
2022-08-03T05:23:35.603Z,100818.14
2022-08-03T05:26:05.631Z,100818.83
2022-08-03T05:28:34.218Z,100818.58
2022-08-03T05:31:06.078Z,100826.31
2022-08-03T05:33:35.603Z,100822.72
2022-08-03T05:36:05.421Z,100826.83
2022-08-03T05:38:35.414Z,100822.50
2022-08-03T05:41:22.614Z,100818.25
2022-08-03T05:43:55.983Z,100824.02
2022-08-03T05:46:24.842Z,100827.34
2022-08-03T05:48:53.578Z,100826.38
2022-08-03T05:51:22.322Z,100829.44
2022-08-03T05:53:50.881Z,100825.31
2022-08-03T05:56:23.886Z,100831.40
2022-08-03T05:58:52.950Z,100834.92
2022-08-03T06:01:22.216Z,100833.92
2022-08-03T06:03:51.928Z,100837.63
2022-08-03T06:06:20.643Z,100836.92
2022-08-03T06:08:49.276Z,100837.17
2022-08-03T06:11:18.362Z,100847.48
2022-08-03T06:13:47.046Z,100844.75
2022-08-03T06:16:15.672Z,100836.70
2022-08-03T06:18:45.487Z,100837.37
2022-08-03T06:21:16.317Z,100838.34
2022-08-03T06:23:53.485Z,100840.25
2022-08-03T06:26:28.302Z,100845.30
2022-08-03T06:28:57.990Z,100838.95
2022-08-03T06:31:32.290Z,100840.13
2022-08-03T06:34:33.596Z,100844.38
2022-08-03T06:37:01.300Z,100836.13
2022-08-03T06:39:31.168Z,100836.44
2022-08-03T06:41:59.623Z,100841.30
2022-08-03T06:44:28.349Z,100843.08
2022-08-03T06:46:58.186Z,100840.19
2022-08-03T06:49:28.146Z,100835.56
2022-08-03T06:52:05.314Z,100838.09
2022-08-03T06:54:36.537Z,100835.44
2022-08-03T06:57:07.628Z,100836.22
2022-08-03T07:00:07.918Z,100839.06
2022-08-03T07:02:28.148Z,100832.00
2022-08-03T07:04:57.691Z,100833.89
2022-08-03T07:07:26.351Z,100837.59
2022-08-03T07:09:57.598Z,100841.19
2022-08-03T07:12:28.945Z,100843.86
2022-08-03T07:15:01.615Z,100843.16
2022-08-03T07:17:30.665Z,100843.50
2022-08-03T07:19:59.924Z,100852.73
2022-08-03T07:22:29.740Z,100845.08
2022-08-03T07:24:58.822Z,100847.69
2022-08-03T07:27:29.342Z,100845.88
2022-08-03T07:29:58.326Z,100840.94
2022-08-03T07:32:27.916Z,100842.09
2022-08-03T07:35:00.565Z,100840.46
2022-08-03T07:37:31.271Z,100850.37
2022-08-03T07:40:01.800Z,100842.48
2022-08-03T07:42:31.770Z,100839.56
2022-08-03T07:45:03.069Z,100835.13
2022-08-03T07:47:35.628Z,100832.25
2022-08-03T07:50:08.896Z,100840.19
2022-08-03T07:52:50.988Z,100831.75
2022-08-03T07:55:24.599Z,100837.59
2022-08-03T07:58:07.103Z,100831.96
2022-08-03T08:00:36.445Z,100828.89
2022-08-03T08:03:05.867Z,100838.85
2022-08-03T08:05:34.806Z,100835.94
2022-08-03T08:08:05.660Z,100831.06
2022-08-03T08:10:35.126Z,100841.02
2022-08-03T08:13:05.095Z,100833.52
2022-08-03T08:15:33.817Z,100842.41
2022-08-03T08:18:04.626Z,100840.27
2022-08-03T08:20:38.029Z,100845.05
2022-08-03T08:23:22.312Z,100843.75
2022-08-03T08:25:56.927Z,100851.56
2022-08-03T08:28:32.855Z,100847.70
2022-08-03T08:31:02.893Z,100848.77
2022-08-03T08:34:03.531Z,100849.18
2022-08-03T08:36:23.566Z,100845.42
2022-08-03T08:38:52.693Z,100847.25
2022-08-03T08:41:21.295Z,100845.11
2022-08-03T08:43:49.991Z,100843.84
2022-08-03T08:46:23.808Z,100844.39
2022-08-03T08:48:54.001Z,100847.59
2022-08-03T08:51:59.619Z,100841.52
2022-08-03T08:54:18.093Z,100849.23
2022-08-03T08:56:49.348Z,100851.48
2022-08-03T08:59:18.387Z,100851.88
2022-08-03T09:01:47.023Z,100846.91
2022-08-03T09:04:16.010Z,100847.33
2022-08-03T09:06:58.873Z,100854.09
2022-08-03T09:10:12.014Z,100853.05
2022-08-03T09:12:40.921Z,100850.82
2022-08-03T09:15:23.313Z,100853.28
2022-08-03T09:17:53.899Z,100847.53
2022-08-03T09:20:25.489Z,100845.21
2022-08-03T09:22:56.949Z,100852.34
2022-08-03T09:25:31.298Z,100844.48
2022-08-03T09:28:53.889Z,100846.48
2022-08-03T09:31:08.684Z,100842.11
2022-08-03T09:33:46.280Z,100846.66
2022-08-03T09:36:37.031Z,100842.80
2022-08-03T09:39:10.389Z,100839.03
2022-08-03T09:41:41.572Z,100833.64
2022-08-03T09:44:25.314Z,100837.25
2022-08-03T09:46:56.450Z,100833.29
2022-08-03T09:49:25.589Z,100830.91
2022-08-03T09:52:32.116Z,100832.07
2022-08-03T09:54:44.931Z,100838.47
2022-08-03T09:57:24.816Z,100829.36
2022-08-03T10:00:03.122Z,100827.73
2022-08-03T10:02:42.646Z,100824.67
2022-08-03T10:05:17.597Z,100830.98
2022-08-03T10:07:50.544Z,100827.72
2022-08-03T10:10:31.382Z,100826.02
2022-08-03T10:13:02.790Z,100818.12
2022-08-03T10:16:22.328Z,100825.39
2022-08-03T10:18:20.685Z,100821.59
2022-08-03T10:20:55.221Z,100819.95
2022-08-03T10:23:25.212Z,100823.05
2022-08-03T10:26:04.514Z,100825.11
2022-08-03T10:28:41.574Z,100823.41
2022-08-03T10:31:14.411Z,100821.95
2022-08-03T10:33:51.568Z,100821.98
2022-08-03T10:36:24.584Z,100823.10
2022-08-03T10:38:54.673Z,100824.06
2022-08-03T10:41:30.997Z,100827.81
2022-08-03T10:44:07.012Z,100823.64
2022-08-03T10:46:42.809Z,100815.36
2022-08-03T10:49:15.045Z,100817.90
2022-08-03T10:51:45.870Z,100811.64
2022-08-03T10:55:03.336Z,100816.20
2022-08-03T10:57:50.124Z,100825.88
2022-08-03T11:00:23.696Z,100820.44
2022-08-03T11:03:08.137Z,100822.11
2022-08-03T11:05:39.953Z,100823.44
2022-08-03T11:08:27.760Z,100821.55
2022-08-03T11:10:59.065Z,100817.67
2022-08-03T11:13:31.313Z,100821.70
2022-08-03T11:16:02.979Z,100815.30
2022-08-03T11:18:33.664Z,100806.45
2022-08-03T11:21:05.248Z,100812.87
2022-08-03T11:24:04.235Z,100808.62
2022-08-03T11:26:35.108Z,100810.25
2022-08-03T11:29:31.040Z,100814.69
2022-08-03T11:31:59.995Z,100807.59
2022-08-03T11:34:28.502Z,100799.13
2022-08-03T11:37:31.540Z,100800.97
2022-08-03T11:40:04.711Z,100788.77
2022-08-03T11:42:43.669Z,100797.76
2022-08-03T11:45:15.008Z,100790.28
2022-08-03T11:47:51.022Z,100793.66
2022-08-03T11:50:24.149Z,100786.05
2022-08-03T11:52:54.423Z,100791.98
2022-08-03T11:55:23.748Z,100789.62
2022-08-03T11:59:18.813Z,100788.78
2022-08-03T12:00:47.622Z,100786.24
2022-08-03T12:03:17.820Z,100781.98
2022-08-03T12:05:52.312Z,100789.77
2022-08-03T12:08:32.713Z,100783.52
2022-08-03T12:11:06.416Z,100781.80
2022-08-03T12:14:45.266Z,100786.04
2022-08-03T12:16:28.398Z,100781.84
2022-08-03T12:18:58.820Z,100780.14
2022-08-03T12:21:28.066Z,100781.48
2022-08-03T12:24:01.810Z,100773.03
2022-08-03T12:26:44.337Z,100776.41
2022-08-03T12:29:27.989Z,100776.75
2022-08-03T12:31:57.163Z,100774.89
2022-08-03T12:34:47.489Z,100777.59
2022-08-03T12:37:22.492Z,100772.86
2022-08-03T12:40:00.488Z,100770.01
2022-08-03T12:42:34.953Z,100784.56
2022-08-03T12:45:22.407Z,100773.91
2022-08-03T12:47:53.032Z,100770.68
2022-08-03T12:50:27.454Z,100771.85
2022-08-03T12:52:56.428Z,100767.25
2022-08-03T12:55:33.120Z,100761.88
2022-08-03T12:58:36.222Z,100759.61
2022-08-03T13:01:09.746Z,100757.88
2022-08-03T13:03:45.740Z,100754.41
2022-08-03T13:06:20.821Z,100755.41
2022-08-03T13:08:51.248Z,100750.48
2022-08-03T13:11:53.534Z,100749.84
2022-08-03T13:14:19.687Z,100747.06
2022-08-03T13:16:49.590Z,100747.09
2022-08-03T13:19:18.478Z,100746.57
2022-08-03T13:22:01.732Z,100744.56
2022-08-03T13:24:33.771Z,100745.16
2022-08-03T13:27:59.411Z,100748.52
2022-08-03T13:29:53.391Z,100740.98
2022-08-03T13:32:22.772Z,100741.91
2022-08-03T13:34:51.447Z,100737.41
2022-08-03T13:37:20.255Z,100734.71
2022-08-03T13:39:59.573Z,100730.42
2022-08-03T13:42:31.343Z,100734.38
2022-08-03T13:45:00.538Z,100729.69
2022-08-03T13:47:29.778Z,100724.66
2022-08-03T13:50:01.468Z,100728.43
2022-08-03T13:52:31.759Z,100725.17
2022-08-03T13:55:01.207Z,100731.39
2022-08-03T13:58:04.251Z,100725.84
2022-08-03T14:00:27.657Z,100727.70
2022-08-03T14:03:13.101Z,100727.28
2022-08-03T14:05:43.714Z,100721.03
2022-08-03T14:08:12.795Z,100726.30
2022-08-03T14:10:43.729Z,100725.58
2022-08-03T14:13:17.536Z,100719.48
2022-08-03T14:15:49.870Z,100727.59
2022-08-03T14:18:27.688Z,100716.89
2022-08-03T14:21:03.398Z,100713.36
2022-08-03T14:23:35.203Z,100716.17
2022-08-03T14:26:05.984Z,100716.34
2022-08-03T14:28:35.267Z,100712.44
2022-08-03T14:31:08.552Z,100709.56
2022-08-03T14:33:55.155Z,100701.83
2022-08-03T14:36:23.744Z,100710.42
2022-08-03T14:38:52.348Z,100704.44
2022-08-03T14:41:20.999Z,100707.80
2022-08-03T14:44:01.163Z,100700.70
2022-08-03T14:46:31.849Z,100705.06
2022-08-03T14:50:34.938Z,100697.25
2022-08-03T14:51:51.417Z,100703.94
2022-08-03T14:54:23.786Z,100693.89
2022-08-03T14:56:53.334Z,100698.91
2022-08-03T14:59:22.032Z,100701.37
2022-08-03T15:02:04.587Z,100696.44
2022-08-03T15:04:35.176Z,100693.44
2022-08-03T15:07:04.505Z,100699.67
2022-08-03T15:09:33.168Z,100699.22
2022-08-03T15:12:01.767Z,100702.67
2022-08-03T15:14:38.725Z,100702.52
2022-08-03T15:17:07.753Z,100693.02
2022-08-03T15:20:02.164Z,100692.47
2022-08-03T15:22:25.452Z,100690.34
2022-08-03T15:26:03.990Z,100690.77
2022-08-03T15:28:02.771Z,100693.98
2022-08-03T15:30:35.502Z,100683.93
2022-08-03T15:33:06.728Z,100685.48
2022-08-03T15:35:35.706Z,100691.55
2022-08-03T15:38:09.612Z,100684.99
2022-08-03T15:40:38.513Z,100688.85
2022-08-03T15:43:07.476Z,100682.59
2022-08-03T15:45:36.596Z,100683.09
2022-08-03T15:48:06.807Z,100677.08
2022-08-03T15:50:35.646Z,100675.83
2022-08-03T15:53:06.746Z,100677.81
2022-08-03T15:55:35.514Z,100674.75
2022-08-03T15:59:04.737Z,100666.86
2022-08-03T16:00:54.121Z,100671.13
2022-08-03T16:03:22.636Z,100665.70
2022-08-03T16:05:51.576Z,100661.80
2022-08-03T16:08:20.947Z,100658.81
2022-08-03T16:10:49.565Z,100660.03
2022-08-03T16:13:18.920Z,100662.95
2022-08-03T16:15:48.402Z,100656.86
2022-08-03T16:18:17.369Z,100656.27
2022-08-03T16:20:46.300Z,100658.11
2022-08-03T16:23:17.955Z,100660.80
2022-08-03T16:25:49.061Z,100655.81
2022-08-03T16:28:19.031Z,100656.89
2022-08-03T16:30:47.934Z,100652.05
2022-08-03T16:33:17.800Z,100651.45
2022-08-03T16:35:49.095Z,100646.55
2022-08-03T16:38:19.323Z,100648.87
2022-08-03T16:40:51.423Z,100651.22
2022-08-03T16:43:21.955Z,100648.05
2022-08-03T16:45:50.646Z,100652.07
2022-08-03T16:48:19.683Z,100651.70
2022-08-03T16:50:49.879Z,100643.80
2022-08-03T16:53:18.684Z,100648.56
2022-08-03T16:56:06.720Z,100649.16
2022-08-03T16:58:42.488Z,100650.87
2022-08-03T17:01:22.216Z,100654.98
2022-08-03T17:04:01.698Z,100652.77
2022-08-03T17:06:37.776Z,100653.23
2022-08-03T17:09:08.859Z,100662.85
2022-08-03T17:11:46.655Z,100666.11
2022-08-03T17:14:22.089Z,100663.41
2022-08-03T17:16:54.344Z,100663.16
2022-08-03T17:19:25.849Z,100666.28
2022-08-03T17:22:01.403Z,100667.95
2022-08-03T17:24:33.925Z,100673.00
2022-08-03T17:27:08.954Z,100672.95
2022-08-03T17:29:45.014Z,100676.53
2022-08-03T17:32:18.339Z,100681.81
2022-08-03T17:34:50.429Z,100674.48
2022-08-03T17:37:50.744Z,100683.27
2022-08-03T17:40:17.630Z,100680.63
2022-08-03T17:42:50.840Z,100687.45
2022-08-03T17:45:20.856Z,100689.82
2022-08-03T17:47:56.962Z,100691.32
2022-08-03T17:50:37.281Z,100695.93
2022-08-03T17:53:23.835Z,100698.37
2022-08-03T17:56:44.683Z,100697.42
2022-08-03T17:59:13.700Z,100701.97
2022-08-03T18:02:29.544Z,100705.55
2022-08-03T18:05:16.818Z,100705.97
2022-08-03T18:07:50.347Z,100706.97
2022-08-03T18:10:34.086Z,100708.66
2022-08-03T18:13:10.224Z,100711.97
2022-08-03T18:15:43.290Z,100711.92
2022-08-03T18:18:16.361Z,100709.09
2022-08-03T18:21:01.146Z,100727.64
2022-08-03T18:23:37.282Z,100719.40
2022-08-03T18:29:00.285Z,100727.09
2022-08-03T18:32:03.580Z,100727.63
2022-08-03T18:34:32.990Z,100742.45
2022-08-03T18:37:07.838Z,100738.64
2022-08-03T18:39:39.019Z,100745.47
2022-08-03T18:42:25.827Z,100750.56
2022-08-03T18:44:57.006Z,100751.28
2022-08-03T18:47:52.994Z,100758.94
2022-08-03T18:50:28.796Z,100761.42
2022-08-03T18:53:15.534Z,100763.84
2022-08-03T18:56:02.380Z,100771.56
2022-08-03T18:58:46.680Z,100764.96
2022-08-03T19:01:59.692Z,100765.48
2022-08-03T19:04:25.274Z,100766.94
2022-08-03T19:07:07.871Z,100769.16
2022-08-03T19:09:46.918Z,100765.98
2022-08-03T19:12:27.268Z,100767.08
2022-08-03T19:15:05.411Z,100768.33
2022-08-03T19:17:40.200Z,100770.45
2022-08-03T19:20:13.681Z,100772.52
2022-08-03T19:22:47.535Z,100774.64
2022-08-03T19:25:17.339Z,100780.95
2022-08-03T19:27:48.100Z,100773.32
2022-08-03T19:30:38.944Z,100778.19
2022-08-03T19:33:10.210Z,100772.19
2022-08-03T19:35:51.338Z,100769.83
2022-08-03T19:38:28.739Z,100773.66
2022-08-03T19:41:01.622Z,100773.06
2022-08-03T19:43:53.357Z,100773.13
2022-08-03T19:46:30.432Z,100774.05
2022-08-03T19:49:14.613Z,100766.34
2022-08-03T19:51:58.480Z,100769.23
2022-08-03T19:54:45.825Z,100769.55
2022-08-03T19:57:25.308Z,100767.05
2022-08-03T19:59:55.739Z,100765.53
2022-08-03T20:02:26.089Z,100774.66
2022-08-03T20:04:57.457Z,100771.22
2022-08-03T20:07:27.876Z,100775.68
2022-08-03T20:09:57.067Z,100774.95
2022-08-03T20:12:28.597Z,100777.83
2022-08-03T20:14:58.495Z,100771.97
2022-08-03T20:17:56.125Z,100772.37
2022-08-03T20:20:20.069Z,100774.38
2022-08-03T20:22:57.660Z,100779.11
2022-08-03T20:25:38.516Z,100776.78
2022-08-03T20:28:13.911Z,100775.20
2022-08-03T20:30:47.414Z,100779.80
2022-08-03T20:33:18.973Z,100779.87
2022-08-03T20:35:49.795Z,100778.16
2022-08-03T20:38:19.684Z,100780.02
2022-08-03T20:40:49.122Z,100775.78
2022-08-03T20:43:20.068Z,100776.93
2022-08-03T20:46:01.138Z,100777.94
2022-08-03T20:48:38.032Z,100780.73
2022-08-03T20:51:19.349Z,100776.53
2022-08-03T20:53:59.538Z,100773.27
2022-08-03T20:56:33.509Z,100781.56
2022-08-03T20:59:04.417Z,100781.83
2022-08-03T21:01:36.136Z,100789.98
2022-08-03T21:04:23.058Z,100787.55
2022-08-03T21:07:00.414Z,100789.48
2022-08-03T21:09:39.990Z,100790.49
2022-08-03T21:12:17.963Z,100794.91
2022-08-03T21:13:04.791Z,100719.11
2022-08-03T21:14:55.793Z,100799.44
2022-08-03T21:17:40.064Z,100788.90
2022-08-03T21:20:17.476Z,100796.92
2022-08-03T21:22:54.965Z,100802.34
2022-08-03T21:25:26.679Z,100801.70
2022-08-03T21:27:58.593Z,100798.27
2022-08-03T21:30:29.877Z,100797.39
2022-08-03T21:32:58.808Z,100794.73
2022-08-03T21:35:27.782Z,100799.31
2022-08-03T21:38:16.924Z,100804.61
2022-08-03T21:40:46.132Z,100798.59
2022-08-03T21:43:14.776Z,100800.45
2022-08-03T21:45:48.416Z,100793.43
2022-08-03T21:48:17.910Z,100802.30
2022-08-03T21:50:51.184Z,100806.66
2022-08-03T21:53:22.384Z,100803.17
2022-08-03T21:55:56.882Z,100809.30
2022-08-03T21:58:30.794Z,100802.30
2022-08-03T22:00:59.471Z,100802.38
2022-08-03T22:03:29.371Z,100800.77
2022-08-03T22:06:05.116Z,100803.50
2022-08-03T22:08:35.335Z,100810.55
2022-08-03T22:11:06.587Z,100811.44
2022-08-03T22:13:44.094Z,100804.22
2022-08-03T22:16:14.466Z,100803.37
2022-08-03T22:18:45.704Z,100799.01
2022-08-03T22:21:16.900Z,100805.14
2022-08-03T22:24:00.129Z,100803.50
2022-08-03T22:26:34.963Z,100804.42
2022-08-03T22:29:07.903Z,100802.78
2022-08-03T22:31:58.189Z,100799.20
2022-08-03T22:34:31.261Z,100804.50
2022-08-03T22:37:03.971Z,100799.13
2022-08-03T22:39:33.465Z,100804.34
2022-08-03T22:42:06.658Z,100801.57
2022-08-03T22:44:39.713Z,100800.73
2022-08-03T22:47:10.365Z,100800.77
2022-08-03T22:49:45.174Z,100805.22
2022-08-03T22:52:14.759Z,100806.98
2022-08-03T22:54:43.797Z,100801.78
2022-08-03T22:57:14.030Z,100807.14
2022-08-03T22:59:46.706Z,100802.70
2022-08-03T23:02:20.982Z,100800.17
2022-08-03T23:04:52.867Z,100801.18
2022-08-03T23:07:27.493Z,100804.83
2022-08-03T23:09:57.526Z,100803.22
2022-08-03T23:12:26.780Z,100802.50
2022-08-03T23:15:05.406Z,100799.14
2022-08-03T23:17:57.591Z,100804.71
2022-08-03T23:20:29.093Z,100802.38
2022-08-03T23:22:58.347Z,100799.94
2022-08-03T23:25:27.621Z,100800.13
2022-08-03T23:28:04.821Z,100801.17
2022-08-03T23:30:37.152Z,100799.71
2022-08-03T23:33:11.442Z,100796.34
2022-08-03T23:36:29.113Z,100797.45
2022-08-03T23:38:49.240Z,100797.68
2022-08-03T23:41:20.021Z,100799.67
2022-08-03T23:43:52.347Z,100798.98
2022-08-03T23:46:24.005Z,100793.95
2022-08-03T23:48:56.555Z,100793.22
2022-08-03T23:51:36.008Z,100792.59
2022-08-03T23:54:19.954Z,100790.98
2022-08-03T23:56:55.058Z,100793.81
2022-08-03T23:59:38.817Z,100795.78
